sensor_id;sensor_type;location;lat;lon;timestamp;temperature;humidity
68217;DHT22;55037;52.354;4.992;2023-05-07T00:00:08;16.70;89.20
68217;DHT22;55037;52.354;4.992;2023-05-07T00:02:36;16.60;89.20
68217;DHT22;55037;52.354;4.992;2023-05-07T00:05:05;16.60;89.40
68217;DHT22;55037;52.354;4.992;2023-05-07T00:07:32;16.60;89.40
68217;DHT22;55037;52.354;4.992;2023-05-07T00:10:00;16.60;89.20
68217;DHT22;55037;52.354;4.992;2023-05-07T00:12:27;16.50;89.20
68217;DHT22;55037;52.354;4.992;2023-05-07T00:14:54;16.40;89.30
68217;DHT22;55037;52.354;4.992;2023-05-07T00:17:21;16.50;89.50
68217;DHT22;55037;52.354;4.992;2023-05-07T00:19:49;16.40;89.60
68217;DHT22;55037;52.354;4.992;2023-05-07T00:22:16;16.40;89.80
68217;DHT22;55037;52.354;4.992;2023-05-07T00:24:43;16.40;89.70
68217;DHT22;55037;52.354;4.992;2023-05-07T00:27:10;16.40;89.70
68217;DHT22;55037;52.354;4.992;2023-05-07T00:29:38;16.30;89.70
68217;DHT22;55037;52.354;4.992;2023-05-07T00:32:05;16.30;89.60
68217;DHT22;55037;52.354;4.992;2023-05-07T00:34:33;16.20;89.70
68217;DHT22;55037;52.354;4.992;2023-05-07T00:37:01;16.20;89.70
68217;DHT22;55037;52.354;4.992;2023-05-07T00:39:30;16.20;89.70
68217;DHT22;55037;52.354;4.992;2023-05-07T00:41:58;16.20;89.80
68217;DHT22;55037;52.354;4.992;2023-05-07T00:44:25;16.20;89.90
68217;DHT22;55037;52.354;4.992;2023-05-07T00:46:53;16.20;89.80
68217;DHT22;55037;52.354;4.992;2023-05-07T00:49:21;16.10;89.70
68217;DHT22;55037;52.354;4.992;2023-05-07T00:51:49;16.10;89.70
68217;DHT22;55037;52.354;4.992;2023-05-07T00:54:17;16.10;89.70
68217;DHT22;55037;52.354;4.992;2023-05-07T00:56:45;16.10;90.00
68217;DHT22;55037;52.354;4.992;2023-05-07T00:59:12;16.10;89.80
68217;DHT22;55037;52.354;4.992;2023-05-07T01:01:39;16.20;89.90
68217;DHT22;55037;52.354;4.992;2023-05-07T01:04:07;16.20;89.90
68217;DHT22;55037;52.354;4.992;2023-05-07T01:06:38;16.20;89.90
68217;DHT22;55037;52.354;4.992;2023-05-07T01:09:06;16.30;89.90
68217;DHT22;55037;52.354;4.992;2023-05-07T01:11:34;16.30;89.80
68217;DHT22;55037;52.354;4.992;2023-05-07T01:14:01;16.30;89.90
68217;DHT22;55037;52.354;4.992;2023-05-07T01:16:29;16.30;89.90
68217;DHT22;55037;52.354;4.992;2023-05-07T01:19:00;16.30;89.70
68217;DHT22;55037;52.354;4.992;2023-05-07T01:21:33;16.30;89.80
68217;DHT22;55037;52.354;4.992;2023-05-07T01:24:04;16.30;89.80
68217;DHT22;55037;52.354;4.992;2023-05-07T01:26:32;16.30;89.80
68217;DHT22;55037;52.354;4.992;2023-05-07T01:29:00;16.30;89.90
68217;DHT22;55037;52.354;4.992;2023-05-07T01:31:27;16.30;89.80
68217;DHT22;55037;52.354;4.992;2023-05-07T01:33:56;16.30;89.90
68217;DHT22;55037;52.354;4.992;2023-05-07T01:36:25;16.30;89.80
68217;DHT22;55037;52.354;4.992;2023-05-07T01:38:54;16.30;89.90
68217;DHT22;55037;52.354;4.992;2023-05-07T01:41:21;16.40;89.60
68217;DHT22;55037;52.354;4.992;2023-05-07T01:43:50;16.30;89.60
68217;DHT22;55037;52.354;4.992;2023-05-07T01:46:19;16.30;89.80
68217;DHT22;55037;52.354;4.992;2023-05-07T01:48:47;16.30;89.80
68217;DHT22;55037;52.354;4.992;2023-05-07T01:51:17;16.30;89.70
68217;DHT22;55037;52.354;4.992;2023-05-07T01:53:44;16.30;89.70
68217;DHT22;55037;52.354;4.992;2023-05-07T01:56:14;16.30;89.80
68217;DHT22;55037;52.354;4.992;2023-05-07T01:58:42;16.30;89.90
68217;DHT22;55037;52.354;4.992;2023-05-07T02:01:09;16.30;90.00
68217;DHT22;55037;52.354;4.992;2023-05-07T02:03:37;16.30;90.00
68217;DHT22;55037;52.354;4.992;2023-05-07T02:06:11;16.40;89.90
68217;DHT22;55037;52.354;4.992;2023-05-07T02:08:39;16.40;90.00
68217;DHT22;55037;52.354;4.992;2023-05-07T02:11:07;16.40;90.00
68217;DHT22;55037;52.354;4.992;2023-05-07T02:13:35;16.40;90.00
68217;DHT22;55037;52.354;4.992;2023-05-07T02:16:03;16.50;89.90
68217;DHT22;55037;52.354;4.992;2023-05-07T02:18:31;16.60;89.90
68217;DHT22;55037;52.354;4.992;2023-05-07T02:20:59;16.60;89.70
68217;DHT22;55037;52.354;4.992;2023-05-07T02:23:26;16.60;89.30
68217;DHT22;55037;52.354;4.992;2023-05-07T02:25:53;16.60;89.40
68217;DHT22;55037;52.354;4.992;2023-05-07T02:28:21;16.60;89.10
68217;DHT22;55037;52.354;4.992;2023-05-07T02:30:56;16.70;89.20
68217;DHT22;55037;52.354;4.992;2023-05-07T02:33:25;16.70;89.30
68217;DHT22;55037;52.354;4.992;2023-05-07T02:35:53;16.70;89.10
68217;DHT22;55037;52.354;4.992;2023-05-07T02:38:20;16.70;88.90
68217;DHT22;55037;52.354;4.992;2023-05-07T02:40:48;16.70;88.80
68217;DHT22;55037;52.354;4.992;2023-05-07T02:43:16;16.70;88.80
68217;DHT22;55037;52.354;4.992;2023-05-07T02:45:46;16.70;88.70
68217;DHT22;55037;52.354;4.992;2023-05-07T02:48:14;16.70;88.80
68217;DHT22;55037;52.354;4.992;2023-05-07T02:50:42;16.70;88.60
68217;DHT22;55037;52.354;4.992;2023-05-07T02:53:11;16.70;88.60
68217;DHT22;55037;52.354;4.992;2023-05-07T02:55:39;16.70;88.50
68217;DHT22;55037;52.354;4.992;2023-05-07T02:58:06;16.80;88.20
68217;DHT22;55037;52.354;4.992;2023-05-07T03:00:35;16.80;88.20
68217;DHT22;55037;52.354;4.992;2023-05-07T03:03:19;16.80;88.30
68217;DHT22;55037;52.354;4.992;2023-05-07T03:05:46;16.80;88.10
68217;DHT22;55037;52.354;4.992;2023-05-07T03:08:13;16.80;88.00
68217;DHT22;55037;52.354;4.992;2023-05-07T03:10:41;16.80;88.00
68217;DHT22;55037;52.354;4.992;2023-05-07T03:13:08;16.80;88.00
68217;DHT22;55037;52.354;4.992;2023-05-07T03:15:36;16.80;87.80
68217;DHT22;55037;52.354;4.992;2023-05-07T03:18:03;16.70;88.70
68217;DHT22;55037;52.354;4.992;2023-05-07T03:20:31;16.70;88.00
68217;DHT22;55037;52.354;4.992;2023-05-07T03:22:59;16.70;88.00
68217;DHT22;55037;52.354;4.992;2023-05-07T03:25:26;16.70;87.90
68217;DHT22;55037;52.354;4.992;2023-05-07T03:27:53;16.70;88.00
68217;DHT22;55037;52.354;4.992;2023-05-07T03:30:24;16.70;87.90
68217;DHT22;55037;52.354;4.992;2023-05-07T03:32:51;16.70;87.80
68217;DHT22;55037;52.354;4.992;2023-05-07T03:35:19;16.70;87.70
68217;DHT22;55037;52.354;4.992;2023-05-07T03:37:46;16.60;87.70
68217;DHT22;55037;52.354;4.992;2023-05-07T03:40:13;16.60;87.90
68217;DHT22;55037;52.354;4.992;2023-05-07T03:42:46;16.50;88.00
68217;DHT22;55037;52.354;4.992;2023-05-07T03:45:14;16.50;88.20
68217;DHT22;55037;52.354;4.992;2023-05-07T03:47:45;16.50;88.30
68217;DHT22;55037;52.354;4.992;2023-05-07T03:50:19;16.50;88.40
68217;DHT22;55037;52.354;4.992;2023-05-07T03:52:46;16.60;88.40
68217;DHT22;55037;52.354;4.992;2023-05-07T03:55:16;16.70;88.50
68217;DHT22;55037;52.354;4.992;2023-05-07T03:57:48;16.70;88.30
68217;DHT22;55037;52.354;4.992;2023-05-07T04:00:16;16.70;88.20
68217;DHT22;55037;52.354;4.992;2023-05-07T04:02:49;16.70;88.10
68217;DHT22;55037;52.354;4.992;2023-05-07T04:05:24;16.70;88.00
68217;DHT22;55037;52.354;4.992;2023-05-07T04:07:57;16.80;87.90
68217;DHT22;55037;52.354;4.992;2023-05-07T04:10:29;16.80;87.70
68217;DHT22;55037;52.354;4.992;2023-05-07T04:12:58;16.80;87.80
68217;DHT22;55037;52.354;4.992;2023-05-07T04:15:27;16.70;87.60
68217;DHT22;55037;52.354;4.992;2023-05-07T04:17:55;16.70;87.70
68217;DHT22;55037;52.354;4.992;2023-05-07T04:20:23;16.70;87.70
68217;DHT22;55037;52.354;4.992;2023-05-07T04:22:57;16.70;87.70
68217;DHT22;55037;52.354;4.992;2023-05-07T04:25:25;16.80;87.80
68217;DHT22;55037;52.354;4.992;2023-05-07T04:27:58;16.80;87.70
68217;DHT22;55037;52.354;4.992;2023-05-07T04:30:27;16.80;87.60
68217;DHT22;55037;52.354;4.992;2023-05-07T04:32:55;16.80;87.50
68217;DHT22;55037;52.354;4.992;2023-05-07T04:35:25;16.80;87.50
68217;DHT22;55037;52.354;4.992;2023-05-07T04:37:53;16.80;87.50
68217;DHT22;55037;52.354;4.992;2023-05-07T04:40:20;16.90;87.50
68217;DHT22;55037;52.354;4.992;2023-05-07T04:42:48;16.90;87.40
68217;DHT22;55037;52.354;4.992;2023-05-07T04:45:15;16.90;87.30
68217;DHT22;55037;52.354;4.992;2023-05-07T04:47:44;17.00;87.30
68217;DHT22;55037;52.354;4.992;2023-05-07T04:50:12;17.00;87.30
68217;DHT22;55037;52.354;4.992;2023-05-07T04:52:41;17.10;87.30
68217;DHT22;55037;52.354;4.992;2023-05-07T04:55:09;17.10;87.00
68217;DHT22;55037;52.354;4.992;2023-05-07T04:57:39;17.10;87.00
68217;DHT22;55037;52.354;4.992;2023-05-07T05:00:09;17.20;86.80
68217;DHT22;55037;52.354;4.992;2023-05-07T05:02:39;17.20;86.90
68217;DHT22;55037;52.354;4.992;2023-05-07T05:05:07;17.20;86.70
68217;DHT22;55037;52.354;4.992;2023-05-07T05:07:34;17.30;86.60
68217;DHT22;55037;52.354;4.992;2023-05-07T05:10:02;17.40;86.70
68217;DHT22;55037;52.354;4.992;2023-05-07T05:12:33;17.40;86.40
68217;DHT22;55037;52.354;4.992;2023-05-07T05:15:01;17.40;86.30
68217;DHT22;55037;52.354;4.992;2023-05-07T05:17:28;17.50;86.10
68217;DHT22;55037;52.354;4.992;2023-05-07T05:19:56;17.50;86.10
68217;DHT22;55037;52.354;4.992;2023-05-07T05:22:24;17.50;86.00
68217;DHT22;55037;52.354;4.992;2023-05-07T05:24:53;17.50;85.80
68217;DHT22;55037;52.354;4.992;2023-05-07T05:27:21;17.50;85.60
68217;DHT22;55037;52.354;4.992;2023-05-07T05:29:48;17.50;85.70
68217;DHT22;55037;52.354;4.992;2023-05-07T05:32:16;17.50;85.90
68217;DHT22;55037;52.354;4.992;2023-05-07T05:34:44;17.50;85.60
68217;DHT22;55037;52.354;4.992;2023-05-07T05:37:11;17.50;85.30
68217;DHT22;55037;52.354;4.992;2023-05-07T05:39:39;17.50;85.30
68217;DHT22;55037;52.354;4.992;2023-05-07T05:42:08;17.50;85.40
68217;DHT22;55037;52.354;4.992;2023-05-07T05:44:36;17.60;85.60
68217;DHT22;55037;52.354;4.992;2023-05-07T05:47:03;17.70;86.00
68217;DHT22;55037;52.354;4.992;2023-05-07T05:49:30;17.70;85.60
68217;DHT22;55037;52.354;4.992;2023-05-07T05:51:57;17.80;85.60
68217;DHT22;55037;52.354;4.992;2023-05-07T05:54:26;18.00;85.30
68217;DHT22;55037;52.354;4.992;2023-05-07T05:56:54;18.10;84.50
68217;DHT22;55037;52.354;4.992;2023-05-07T05:59:23;18.10;84.50
68217;DHT22;55037;52.354;4.992;2023-05-07T06:01:52;18.10;84.30
68217;DHT22;55037;52.354;4.992;2023-05-07T06:04:19;18.10;84.40
68217;DHT22;55037;52.354;4.992;2023-05-07T06:06:46;18.20;84.60
68217;DHT22;55037;52.354;4.992;2023-05-07T06:09:14;18.30;84.00
68217;DHT22;55037;52.354;4.992;2023-05-07T06:11:43;18.30;83.90
68217;DHT22;55037;52.354;4.992;2023-05-07T06:14:12;18.30;84.20
68217;DHT22;55037;52.354;4.992;2023-05-07T06:16:40;18.40;85.00
68217;DHT22;55037;52.354;4.992;2023-05-07T06:19:07;18.70;84.90
68217;DHT22;55037;52.354;4.992;2023-05-07T06:21:35;19.00;84.40
68217;DHT22;55037;52.354;4.992;2023-05-07T06:24:02;19.30;83.80
68217;DHT22;55037;52.354;4.992;2023-05-07T06:26:30;19.50;82.80
68217;DHT22;55037;52.354;4.992;2023-05-07T06:28:57;19.50;82.10
68217;DHT22;55037;52.354;4.992;2023-05-07T06:31:29;19.50;82.00
68217;DHT22;55037;52.354;4.992;2023-05-07T06:34:10;19.50;81.70
68217;DHT22;55037;52.354;4.992;2023-05-07T06:36:38;19.50;81.60
68217;DHT22;55037;52.354;4.992;2023-05-07T06:39:28;19.50;81.80
68217;DHT22;55037;52.354;4.992;2023-05-07T06:41:55;19.60;81.70
68217;DHT22;55037;52.354;4.992;2023-05-07T06:44:26;19.60;81.00
68217;DHT22;55037;52.354;4.992;2023-05-07T06:47:12;19.60;79.70
68217;DHT22;55037;52.354;4.992;2023-05-07T06:49:44;19.40;79.30
68217;DHT22;55037;52.354;4.992;2023-05-07T06:52:15;19.40;79.50
68217;DHT22;55037;52.354;4.992;2023-05-07T06:54:42;19.30;79.10
68217;DHT22;55037;52.354;4.992;2023-05-07T06:57:11;19.30;79.60
68217;DHT22;55037;52.354;4.992;2023-05-07T06:59:38;19.40;80.60
68217;DHT22;55037;52.354;4.992;2023-05-07T07:02:06;19.60;79.50
68217;DHT22;55037;52.354;4.992;2023-05-07T07:04:34;19.60;79.80
68217;DHT22;55037;52.354;4.992;2023-05-07T07:07:05;19.80;79.80
68217;DHT22;55037;52.354;4.992;2023-05-07T07:09:32;19.90;80.00
68217;DHT22;55037;52.354;4.992;2023-05-07T07:12:01;20.10;78.70
68217;DHT22;55037;52.354;4.992;2023-05-07T07:14:29;20.20;79.50
68217;DHT22;55037;52.354;4.992;2023-05-07T07:16:56;20.40;77.40
68217;DHT22;55037;52.354;4.992;2023-05-07T07:19:26;20.20;77.90
68217;DHT22;55037;52.354;4.992;2023-05-07T07:21:55;20.10;77.90
68217;DHT22;55037;52.354;4.992;2023-05-07T07:24:22;19.90;77.60
68217;DHT22;55037;52.354;4.992;2023-05-07T07:26:54;19.80;78.70
68217;DHT22;55037;52.354;4.992;2023-05-07T07:29:24;19.80;79.10
68217;DHT22;55037;52.354;4.992;2023-05-07T07:31:53;19.80;78.90
68217;DHT22;55037;52.354;4.992;2023-05-07T07:34:21;19.80;78.70
68217;DHT22;55037;52.354;4.992;2023-05-07T07:36:49;19.70;78.10
68217;DHT22;55037;52.354;4.992;2023-05-07T07:39:18;19.60;79.30
68217;DHT22;55037;52.354;4.992;2023-05-07T07:41:48;19.60;79.80
68217;DHT22;55037;52.354;4.992;2023-05-07T07:44:16;19.80;80.80
68217;DHT22;55037;52.354;4.992;2023-05-07T07:46:49;20.20;81.00
68217;DHT22;55037;52.354;4.992;2023-05-07T07:49:18;20.30;79.60
68217;DHT22;55037;52.354;4.992;2023-05-07T07:51:45;20.60;79.50
68217;DHT22;55037;52.354;4.992;2023-05-07T07:54:13;20.80;78.00
68217;DHT22;55037;52.354;4.992;2023-05-07T07:56:41;21.20;77.70
68217;DHT22;55037;52.354;4.992;2023-05-07T07:59:10;21.50;77.40
68217;DHT22;55037;52.354;4.992;2023-05-07T08:01:40;22.00;77.60
68217;DHT22;55037;52.354;4.992;2023-05-07T08:04:07;22.30;75.70
68217;DHT22;55037;52.354;4.992;2023-05-07T08:06:38;22.40;74.80
68217;DHT22;55037;52.354;4.992;2023-05-07T08:09:08;22.40;73.70
68217;DHT22;55037;52.354;4.992;2023-05-07T08:11:37;22.20;73.80
68217;DHT22;55037;52.354;4.992;2023-05-07T08:14:05;22.10;73.20
68217;DHT22;55037;52.354;4.992;2023-05-07T08:16:32;21.90;73.20
68217;DHT22;55037;52.354;4.992;2023-05-07T08:19:00;21.80;73.80
68217;DHT22;55037;52.354;4.992;2023-05-07T08:21:28;21.90;73.80
68217;DHT22;55037;52.354;4.992;2023-05-07T08:23:55;22.00;73.30
68217;DHT22;55037;52.354;4.992;2023-05-07T08:26:22;22.10;73.30
68217;DHT22;55037;52.354;4.992;2023-05-07T08:28:50;22.10;72.70
68217;DHT22;55037;52.354;4.992;2023-05-07T08:31:17;22.10;72.90
68217;DHT22;55037;52.354;4.992;2023-05-07T08:33:45;22.30;73.50
68217;DHT22;55037;52.354;4.992;2023-05-07T08:36:12;22.70;72.90
68217;DHT22;55037;52.354;4.992;2023-05-07T08:38:40;22.90;71.80
68217;DHT22;55037;52.354;4.992;2023-05-07T08:41:10;23.30;70.60
68217;DHT22;55037;52.354;4.992;2023-05-07T08:43:41;23.70;70.20
68217;DHT22;55037;52.354;4.992;2023-05-07T08:46:09;24.10;68.20
68217;DHT22;55037;52.354;4.992;2023-05-07T08:48:42;24.50;66.80
68217;DHT22;55037;52.354;4.992;2023-05-07T08:51:15;24.70;66.20
68217;DHT22;55037;52.354;4.992;2023-05-07T08:53:43;25.00;63.30
68217;DHT22;55037;52.354;4.992;2023-05-07T08:56:15;24.70;62.20
68217;DHT22;55037;52.354;4.992;2023-05-07T08:58:44;24.90;62.60
68217;DHT22;55037;52.354;4.992;2023-05-07T09:01:16;25.00;60.70
68217;DHT22;55037;52.354;4.992;2023-05-07T09:03:47;25.10;58.40
68217;DHT22;55037;52.354;4.992;2023-05-07T09:06:15;25.20;59.30
68217;DHT22;55037;52.354;4.992;2023-05-07T09:08:52;26.90;58.20
68217;DHT22;55037;52.354;4.992;2023-05-07T09:11:22;28.60;49.10
68217;DHT22;55037;52.354;4.992;2023-05-07T09:13:55;30.30;45.00
68217;DHT22;55037;52.354;4.992;2023-05-07T09:16:24;32.70;41.90
68217;DHT22;55037;52.354;4.992;2023-05-07T09:18:53;34.50;38.70
68217;DHT22;55037;52.354;4.992;2023-05-07T09:21:22;35.50;35.90
68217;DHT22;55037;52.354;4.992;2023-05-07T09:23:53;35.50;31.10
68217;DHT22;55037;52.354;4.992;2023-05-07T09:26:25;34.90;30.60
68217;DHT22;55037;52.354;4.992;2023-05-07T09:28:52;34.90;30.70
68217;DHT22;55037;52.354;4.992;2023-05-07T09:31:20;34.80;30.30
68217;DHT22;55037;52.354;4.992;2023-05-07T09:33:50;34.90;29.30
68217;DHT22;55037;52.354;4.992;2023-05-07T09:36:19;34.40;29.80
68217;DHT22;55037;52.354;4.992;2023-05-07T09:38:49;34.40;30.70
68217;DHT22;55037;52.354;4.992;2023-05-07T09:41:18;34.20;28.90
68217;DHT22;55037;52.354;4.992;2023-05-07T09:43:57;33.50;30.00
68217;DHT22;55037;52.354;4.992;2023-05-07T09:46:30;33.40;32.40
68217;DHT22;55037;52.354;4.992;2023-05-07T09:49:07;34.40;31.90
68217;DHT22;55037;52.354;4.992;2023-05-07T09:51:43;35.30;29.30
68217;DHT22;55037;52.354;4.992;2023-05-07T09:54:12;36.50;28.40
68217;DHT22;55037;52.354;4.992;2023-05-07T09:56:44;37.10;28.10
68217;DHT22;55037;52.354;4.992;2023-05-07T09:59:14;37.90;27.00
68217;DHT22;55037;52.354;4.992;2023-05-07T10:01:43;38.30;25.70
68217;DHT22;55037;52.354;4.992;2023-05-07T10:04:11;39.00;26.40
68217;DHT22;55037;52.354;4.992;2023-05-07T10:06:40;40.20;25.80
68217;DHT22;55037;52.354;4.992;2023-05-07T10:09:09;40.60;25.30
68217;DHT22;55037;52.354;4.992;2023-05-07T10:11:39;41.10;25.10
68217;DHT22;55037;52.354;4.992;2023-05-07T10:14:07;41.80;24.70
68217;DHT22;55037;52.354;4.992;2023-05-07T10:16:36;42.50;23.80
68217;DHT22;55037;52.354;4.992;2023-05-07T10:19:11;42.40;22.90
68217;DHT22;55037;52.354;4.992;2023-05-07T10:21:48;41.30;23.10
68217;DHT22;55037;52.354;4.992;2023-05-07T10:24:22;39.70;24.00
68217;DHT22;55037;52.354;4.992;2023-05-07T10:26:52;37.90;25.60
68217;DHT22;55037;52.354;4.992;2023-05-07T10:29:34;36.10;27.10
68217;DHT22;55037;52.354;4.992;2023-05-07T10:33:01;34.50;29.30
68217;DHT22;55037;52.354;4.992;2023-05-07T10:35:19;33.40;29.90
68217;DHT22;55037;52.354;4.992;2023-05-07T10:37:48;32.50;30.90
68217;DHT22;55037;52.354;4.992;2023-05-07T10:40:17;31.80;32.50
68217;DHT22;55037;52.354;4.992;2023-05-07T10:42:58;31.50;33.20
68217;DHT22;55037;52.354;4.992;2023-05-07T10:45:29;31.50;33.80
68217;DHT22;55037;52.354;4.992;2023-05-07T10:48:17;31.90;33.90
68217;DHT22;55037;52.354;4.992;2023-05-07T10:51:21;33.40;33.30
68217;DHT22;55037;52.354;4.992;2023-05-07T10:56:46;38.20;28.50
68217;DHT22;55037;52.354;4.992;2023-05-07T11:02:03;39.10;25.70
68217;DHT22;55037;52.354;4.992;2023-05-07T11:04:39;39.00;25.40
68217;DHT22;55037;52.354;4.992;2023-05-07T11:07:30;38.80;25.60
68217;DHT22;55037;52.354;4.992;2023-05-07T11:10:04;40.10;25.60
68217;DHT22;55037;52.354;4.992;2023-05-07T11:13:07;41.10;24.00
68217;DHT22;55037;52.354;4.992;2023-05-07T11:15:46;41.60;23.10
68217;DHT22;55037;52.354;4.992;2023-05-07T11:18:48;41.50;22.70
68217;DHT22;55037;52.354;4.992;2023-05-07T11:21:41;42.30;22.40
68217;DHT22;55037;52.354;4.992;2023-05-07T11:24:16;42.70;22.00
68217;DHT22;55037;52.354;4.992;2023-05-07T11:26:51;41.60;21.80
68217;DHT22;55037;52.354;4.992;2023-05-07T11:29:21;40.10;22.70
68217;DHT22;55037;52.354;4.992;2023-05-07T11:31:55;38.50;23.90
68217;DHT22;55037;52.354;4.992;2023-05-07T11:34:26;37.10;25.10
68217;DHT22;55037;52.354;4.992;2023-05-07T11:36:58;36.10;26.30
68217;DHT22;55037;52.354;4.992;2023-05-07T11:39:38;35.50;26.80
68217;DHT22;55037;52.354;4.992;2023-05-07T11:42:05;35.50;27.10
68217;DHT22;55037;52.354;4.992;2023-05-07T11:44:45;35.90;27.20
68217;DHT22;55037;52.354;4.992;2023-05-07T11:47:19;35.90;27.00
68217;DHT22;55037;52.354;4.992;2023-05-07T11:49:52;35.10;27.60
68217;DHT22;55037;52.354;4.992;2023-05-07T11:52:21;34.20;28.20
68217;DHT22;55037;52.354;4.992;2023-05-07T11:54:58;32.90;28.90
68217;DHT22;55037;52.354;4.992;2023-05-07T11:57:27;31.70;30.40
68217;DHT22;55037;52.354;4.992;2023-05-07T11:59:55;30.70;31.80
68217;DHT22;55037;52.354;4.992;2023-05-07T12:02:23;30.00;33.60
68217;DHT22;55037;52.354;4.992;2023-05-07T12:04:52;29.50;34.40
68217;DHT22;55037;52.354;4.992;2023-05-07T12:07:20;29.30;34.90
68217;DHT22;55037;52.354;4.992;2023-05-07T12:09:48;29.30;35.30
68217;DHT22;55037;52.354;4.992;2023-05-07T12:12:15;29.40;35.20
68217;DHT22;55037;52.354;4.992;2023-05-07T12:14:45;30.20;34.60
68217;DHT22;55037;52.354;4.992;2023-05-07T12:17:14;30.60;34.10
68217;DHT22;55037;52.354;4.992;2023-05-07T12:19:43;31.10;34.50
68217;DHT22;55037;52.354;4.992;2023-05-07T12:22:12;31.60;33.20
68217;DHT22;55037;52.354;4.992;2023-05-07T12:24:49;31.60;32.70
68217;DHT22;55037;52.354;4.992;2023-05-07T12:27:17;31.50;32.30
68217;DHT22;55037;52.354;4.992;2023-05-07T12:29:47;31.50;32.60
68217;DHT22;55037;52.354;4.992;2023-05-07T12:32:16;32.50;32.70
68217;DHT22;55037;52.354;4.992;2023-05-07T12:34:44;34.70;30.80
68217;DHT22;55037;52.354;4.992;2023-05-07T12:37:12;36.60;28.60
68217;DHT22;55037;52.354;4.992;2023-05-07T12:39:50;37.70;27.20
68217;DHT22;55037;52.354;4.992;2023-05-07T12:42:20;37.30;26.60
68217;DHT22;55037;52.354;4.992;2023-05-07T12:44:52;36.10;27.20
68217;DHT22;55037;52.354;4.992;2023-05-07T12:47:20;34.80;28.00
68217;DHT22;55037;52.354;4.992;2023-05-07T12:49:47;34.00;29.20
68217;DHT22;55037;52.354;4.992;2023-05-07T12:52:15;33.60;29.80
68217;DHT22;55037;52.354;4.992;2023-05-07T13:01:45;31.60;31.70
68217;DHT22;55037;52.354;4.992;2023-05-07T13:04:12;31.00;34.10
68217;DHT22;55037;52.354;4.992;2023-05-07T13:06:40;31.10;33.60
68217;DHT22;55037;52.354;4.992;2023-05-07T13:09:07;31.50;33.60
68217;DHT22;55037;52.354;4.992;2023-05-07T13:11:34;32.50;32.60
68217;DHT22;55037;52.354;4.992;2023-05-07T13:14:02;33.10;31.20
68217;DHT22;55037;52.354;4.992;2023-05-07T13:16:29;33.90;30.80
68217;DHT22;55037;52.354;4.992;2023-05-07T13:18:56;34.60;29.90
68217;DHT22;55037;52.354;4.992;2023-05-07T13:21:24;34.50;29.40
68217;DHT22;55037;52.354;4.992;2023-05-07T13:23:51;33.80;29.70
68217;DHT22;55037;52.354;4.992;2023-05-07T13:26:18;32.80;30.30
68217;DHT22;55037;52.354;4.992;2023-05-07T13:28:56;31.50;31.90
68217;DHT22;55037;52.354;4.992;2023-05-07T13:31:24;30.30;33.60
68217;DHT22;55037;52.354;4.992;2023-05-07T13:33:51;29.40;35.40
68217;DHT22;55037;52.354;4.992;2023-05-07T13:36:19;28.60;37.00
68217;DHT22;55037;52.354;4.992;2023-05-07T13:38:46;27.90;38.50
68217;DHT22;55037;52.354;4.992;2023-05-07T13:41:14;27.40;39.60
68217;DHT22;55037;52.354;4.992;2023-05-07T13:43:41;26.80;40.60
68217;DHT22;55037;52.354;4.992;2023-05-07T13:46:08;26.30;41.90
68217;DHT22;55037;52.354;4.992;2023-05-07T13:48:36;25.80;42.90
68217;DHT22;55037;52.354;4.992;2023-05-07T13:51:03;25.40;43.80
68217;DHT22;55037;52.354;4.992;2023-05-07T13:53:31;25.00;44.90
68217;DHT22;55037;52.354;4.992;2023-05-07T13:55:58;24.70;46.10
68217;DHT22;55037;52.354;4.992;2023-05-07T13:58:25;24.40;47.30
68217;DHT22;55037;52.354;4.992;2023-05-07T14:00:53;24.20;48.30
68217;DHT22;55037;52.354;4.992;2023-05-07T14:03:20;24.10;49.10
68217;DHT22;55037;52.354;4.992;2023-05-07T14:05:47;24.00;49.90
68217;DHT22;55037;52.354;4.992;2023-05-07T14:08:16;23.80;50.60
68217;DHT22;55037;52.354;4.992;2023-05-07T14:10:46;23.70;52.10
68217;DHT22;55037;52.354;4.992;2023-05-07T14:13:14;23.50;53.50
68217;DHT22;55037;52.354;4.992;2023-05-07T14:15:41;23.30;53.90
68217;DHT22;55037;52.354;4.992;2023-05-07T14:18:13;23.10;54.70
68217;DHT22;55037;52.354;4.992;2023-05-07T14:20:40;22.70;56.10
68217;DHT22;55037;52.354;4.992;2023-05-07T14:23:07;22.30;58.50
68217;DHT22;55037;52.354;4.992;2023-05-07T14:25:35;21.90;58.60
68217;DHT22;55037;52.354;4.992;2023-05-07T14:28:02;21.60;59.80
68217;DHT22;55037;52.354;4.992;2023-05-07T14:30:29;21.20;61.00
68217;DHT22;55037;52.354;4.992;2023-05-07T14:32:56;20.90;61.40
68217;DHT22;55037;52.354;4.992;2023-05-07T14:35:24;20.60;62.40
68217;DHT22;55037;52.354;4.992;2023-05-07T14:37:51;20.10;65.70
68217;DHT22;55037;52.354;4.992;2023-05-07T14:40:18;19.60;68.80
68217;DHT22;55037;52.354;4.992;2023-05-07T14:42:45;19.10;71.20
68217;DHT22;55037;52.354;4.992;2023-05-07T14:45:12;18.80;73.10
68217;DHT22;55037;52.354;4.992;2023-05-07T14:47:40;18.50;74.60
68217;DHT22;55037;52.354;4.992;2023-05-07T14:50:08;18.20;75.90
68217;DHT22;55037;52.354;4.992;2023-05-07T14:52:35;17.80;77.80
68217;DHT22;55037;52.354;4.992;2023-05-07T14:55:03;17.60;79.70
68217;DHT22;55037;52.354;4.992;2023-05-07T14:57:30;17.40;81.20
68217;DHT22;55037;52.354;4.992;2023-05-07T15:00:03;17.30;82.50
68217;DHT22;55037;52.354;4.992;2023-05-07T15:02:31;17.30;83.90
68217;DHT22;55037;52.354;4.992;2023-05-07T15:04:59;17.30;84.90
68217;DHT22;55037;52.354;4.992;2023-05-07T15:07:26;17.40;85.80
68217;DHT22;55037;52.354;4.992;2023-05-07T15:09:54;17.50;86.20
68217;DHT22;55037;52.354;4.992;2023-05-07T15:12:21;17.60;86.70
68217;DHT22;55037;52.354;4.992;2023-05-07T15:14:48;17.80;86.80
68217;DHT22;55037;52.354;4.992;2023-05-07T15:17:15;17.90;86.60
68217;DHT22;55037;52.354;4.992;2023-05-07T15:19:43;17.90;87.10
68217;DHT22;55037;52.354;4.992;2023-05-07T15:22:10;18.10;87.50
68217;DHT22;55037;52.354;4.992;2023-05-07T15:24:37;18.20;87.60
68217;DHT22;55037;52.354;4.992;2023-05-07T15:27:04;18.30;88.00
68217;DHT22;55037;52.354;4.992;2023-05-07T15:29:31;18.50;88.00
68217;DHT22;55037;52.354;4.992;2023-05-07T15:32:00;18.60;87.90
68217;DHT22;55037;52.354;4.992;2023-05-07T15:34:27;18.60;88.30
68217;DHT22;55037;52.354;4.992;2023-05-07T15:36:55;18.70;88.10
68217;DHT22;55037;52.354;4.992;2023-05-07T15:39:24;18.90;88.50
68217;DHT22;55037;52.354;4.992;2023-05-07T15:41:51;18.90;87.80
68217;DHT22;55037;52.354;4.992;2023-05-07T15:44:18;18.80;87.60
68217;DHT22;55037;52.354;4.992;2023-05-07T15:46:46;18.80;87.70
68217;DHT22;55037;52.354;4.992;2023-05-07T15:49:13;18.70;87.80
68217;DHT22;55037;52.354;4.992;2023-05-07T15:51:40;18.80;89.00
68217;DHT22;55037;52.354;4.992;2023-05-07T15:54:07;18.90;90.10
68217;DHT22;55037;52.354;4.992;2023-05-07T15:56:34;19.20;90.10